Time;durP1;ratioP1;P1;durP2;ratioP2;P2;SDS_P1;SDS_P2;PMS_P1;PMS_P2;Temp;Humidity;BMP_temperature;BMP_pressure;BME280_temperature;BME280_humidity;BME280_pressure;Samples;Min_cycle;Max_cycle;Signal;HPM_P1;HPM_P2
2023/12/07 00:00:19;;;;;;;48.60;24.35;;;;;;;5.86;99.56;101416.19;5048807;28;20073;-60
2023/12/07 00:02:49;;;;;;;46.22;24.50;;;;;;;5.72;98.72;101404.84;5017099;28;20052;-58
2023/12/07 00:05:16;;;;;;;46.35;24.50;;;;;;;5.57;99.89;101404.78;5030428;28;20501;-59
2023/12/07 00:07:44;;;;;;;43.95;24.55;;;;;;;5.58;100.00;101409.13;5031805;28;20046;-57
2023/12/07 00:10:11;;;;;;;47.22;24.80;;;;;;;5.80;99.77;101422.66;5025758;28;20053;-61
2023/12/07 00:12:38;;;;;;;45.38;23.92;;;;;;;5.73;99.44;101417.44;5031993;28;20062;-60
2023/12/07 00:15:06;;;;;;;44.92;23.23;;;;;;;5.52;99.81;101399.28;5033415;28;20061;-56
2023/12/07 00:17:33;;;;;;;41.05;22.55;;;;;;;5.64;99.57;101397.16;4998210;28;20089;-59
2023/12/07 00:20:04;;;;;;;44.28;23.35;;;;;;;5.48;99.21;101392.69;5021948;28;20067;-60
2023/12/07 00:22:38;;;;;;;42.22;23.67;;;;;;;5.58;99.44;101390.84;5037350;28;20060;-64
2023/12/07 00:25:11;;;;;;;42.25;23.42;;;;;;;5.65;99.51;101385.13;5011755;28;20475;-61
2023/12/07 00:27:42;;;;;;;41.40;22.33;;;;;;;5.38;100.00;101368.88;5046984;28;20052;-60
2023/12/07 00:30:12;;;;;;;44.05;21.95;;;;;;;5.60;100.00;101366.81;5051637;28;20068;-60
2023/12/07 00:32:49;;;;;;;35.92;20.40;;;;;;;5.32;99.57;101366.34;5024614;28;20057;-59
2023/12/07 00:35:17;;;;;;;39.58;21.27;;;;;;;5.52;99.88;101356.38;5050389;28;20045;-60
2023/12/07 00:37:45;;;;;;;45.70;21.27;;;;;;;5.42;99.79;101363.69;5019610;28;20057;-61
2023/12/07 00:40:18;;;;;;;40.70;21.05;;;;;;;5.40;100.00;101371.34;5020567;28;20064;-58
2023/12/07 00:42:45;;;;;;;38.28;22.38;;;;;;;5.41;100.00;101367.50;5039824;28;20057;-59
2023/12/07 00:45:13;;;;;;;43.55;22.35;;;;;;;5.57;100.00;101375.53;5030084;28;20057;-60
2023/12/07 00:47:40;;;;;;;37.88;22.17;;;;;;;5.56;99.54;101379.34;5030590;28;20456;-58
2023/12/07 00:50:08;;;;;;;38.42;21.83;;;;;;;5.44;99.69;101384.19;5014525;28;20060;-60
2023/12/07 00:52:50;;;;;;;41.80;21.50;;;;;;;5.32;99.76;101389.03;5027088;28;20057;-60
2023/12/07 00:55:32;;;;;;;38.33;20.45;;;;;;;5.44;100.00;101380.66;5034046;28;20060;-60
2023/12/07 00:58:05;;;;;;;36.47;19.48;;;;;;;5.32;99.26;101383.56;5021606;28;20055;-60
2023/12/07 01:00:33;;;;;;;35.83;20.08;;;;;;;5.31;99.84;101386.56;5034403;28;20045;-59
2023/12/07 01:03:00;;;;;;;38.25;20.50;;;;;;;5.49;100.00;101386.94;5049581;28;20060;-60
2023/12/07 01:05:27;;;;;;;40.55;20.52;;;;;;;5.42;99.57;101385.56;5042016;28;20072;-59
2023/12/07 01:07:55;;;;;;;39.08;21.08;;;;;;;5.52;99.88;101377.41;5026329;28;20062;-59
2023/12/07 01:10:22;;;;;;;40.50;22.15;;;;;;;5.47;98.96;101375.47;5011854;28;20057;-60
2023/12/07 01:12:49;;;;;;;38.67;21.65;;;;;;;5.53;99.54;101379.06;5035797;28;20068;-61
2023/12/07 01:15:17;;;;;;;37.55;21.40;;;;;;;5.44;99.42;101392.38;5028642;28;20054;-60
2023/12/07 01:17:44;;;;;;;39.67;20.23;;;;;;;5.39;99.74;101400.56;5008121;28;20279;-61
2023/12/07 01:20:14;;;;;;;;;;;;;;;5.31;100.00;101395.59;5017758;28;20044;-60
2023/12/07 01:22:41;;;;;;;34.92;19.67;;;;;;;5.40;99.81;101390.44;5021552;28;19921;-61
2023/12/07 01:25:09;;;;;;;37.42;20.85;;;;;;;5.58;99.62;101388.09;5013921;28;20060;-61
2023/12/07 01:27:36;;;;;;;38.15;21.20;;;;;;;5.44;98.04;101372.47;5013245;28;20061;-58
2023/12/07 01:30:04;;;;;;;37.38;20.10;;;;;;;5.33;99.61;101368.84;5039550;28;20044;-58
2023/12/07 01:32:32;;;;;;;39.10;20.88;;;;;;;5.42;98.90;101369.16;5021303;28;20540;-59
2023/12/07 01:35:02;;;;;;;36.90;19.63;;;;;;;5.31;99.90;101364.72;5029718;28;20539;-64
2023/12/07 01:37:51;;;;;;;36.33;20.77;;;;;;;5.47;99.03;101361.78;5016754;28;20403;-58
2023/12/07 01:40:31;;;;;;;34.53;20.45;;;;;;;5.50;99.36;101352.25;5039037;28;20720;-59
2023/12/07 01:43:12;;;;;;;40.63;21.77;;;;;;;5.30;99.67;101352.94;5008638;28;20089;-60
2023/12/07 01:45:42;;;;;;;;;;;;;;;5.28;100.00;101357.84;4988686;28;20065;-60
2023/12/07 01:48:13;;;;;;;44.22;20.52;;;;;;;5.01;100.00;101364.47;5035641;28;19927;-59
2023/12/07 01:50:41;;;;;;;41.80;20.35;;;;;;;5.02;100.00;101369.66;5015056;28;20065;-60
2023/12/07 01:53:09;;;;;;;33.38;19.40;;;;;;;5.20;100.00;101362.97;5027309;28;20061;-62
2023/12/07 01:55:38;;;;;;;38.30;19.92;;;;;;;5.22;100.00;101358.09;5032341;28;20456;-59
2023/12/07 01:58:06;;;;;;;37.17;19.73;;;;;;;5.29;100.00;101351.31;5033313;28;20057;-59
2023/12/07 02:00:34;;;;;;;36.83;20.08;;;;;;;5.48;100.00;101359.91;5035225;28;20045;-59
2023/12/07 02:03:04;;;;;;;41.90;19.38;;;;;;;5.37;100.00;101364.47;5019421;28;20049;-59
2023/12/07 02:05:33;;;;;;;34.10;19.55;;;;;;;5.25;100.00;101369.31;5014555;28;20080;-59
2023/12/07 02:08:00;;;;;;;36.47;18.95;;;;;;;5.31;100.00;101373.72;5023720;28;20425;-61
2023/12/07 02:10:28;;;;;;;36.80;19.05;;;;;;;5.39;100.00;101367.78;5031872;28;20049;-59
2023/12/07 02:12:55;;;;;;;40.28;20.42;;;;;;;5.31;100.00;101359.25;5052223;28;20048;-58
2023/12/07 02:15:23;;;;;;;36.78;19.55;;;;;;;5.46;100.00;101351.13;5014584;28;20057;-59
2023/12/07 02:18:09;;;;;;;38.90;19.83;;;;;;;5.44;98.91;101345.94;5013444;28;20056;-60
2023/12/07 02:20:51;;;;;;;33.30;17.92;;;;;;;5.41;99.16;101341.00;5014147;28;20053;-59
2023/12/07 02:23:19;;;;;;;42.25;19.95;;;;;;;5.27;99.66;101333.53;5012251;28;20053;-60
2023/12/07 02:26:08;;;;;;;33.17;19.40;;;;;;;5.08;100.00;101324.13;5013117;28;20057;-58
2023/12/07 02:28:36;;;;;;;36.80;20.37;;;;;;;5.15;100.00;101327.44;5032631;28;20647;-59
2023/12/07 02:31:03;;;;;;;36.13;20.85;;;;;;;5.21;100.00;101329.16;5032508;28;20060;-58
2023/12/07 02:33:48;;;;;;;37.83;19.73;;;;;;;5.19;100.00;101334.88;5035332;28;20052;-59
2023/12/07 02:36:22;;;;;;;37.00;19.50;;;;;;;5.27;100.00;101337.09;5018096;28;20045;-61
2023/12/07 02:38:52;;;;;;;39.03;20.10;;;;;;;5.20;100.00;101327.47;5032737;28;20049;-61
2023/12/07 02:41:48;;;;;;;39.08;18.52;;;;;;;5.34;100.00;101326.78;5034767;28;20042;-62
2023/12/07 02:44:19;;;;;;;32.80;18.33;;;;;;;5.20;100.00;101339.25;5007905;28;20125;-61
2023/12/07 02:46:46;;;;;;;31.17;17.70;;;;;;;5.35;100.00;101330.34;5000004;28;20053;-57
2023/12/07 02:49:13;;;;;;;31.10;17.23;;;;;;;5.41;99.24;101335.56;5031488;28;20064;-55
2023/12/07 02:51:41;;;;;;;28.33;17.02;;;;;;;5.35;98.59;101341.25;5033563;28;20121;-58
2023/12/07 02:54:08;;;;;;;29.23;17.15;;;;;;;5.12;98.59;101344.38;5026813;28;20061;-60
2023/12/07 02:56:35;;;;;;;31.75;18.55;;;;;;;4.88;99.99;101354.81;5011782;28;20060;-59
2023/12/07 02:59:03;;;;;;;31.67;17.45;;;;;;;5.07;100.00;101353.34;5013995;28;20070;-59
2023/12/07 03:01:33;;;;;;;27.05;16.65;;;;;;;5.12;99.46;101356.13;5037180;28;20053;-61
2023/12/07 03:04:00;;;;;;;27.08;16.48;;;;;;;5.09;99.44;101364.81;4995975;28;20060;-60
2023/12/07 03:06:32;;;;;;;30.38;17.48;;;;;;;5.08;99.19;101371.38;5029809;28;20061;-59
2023/12/07 03:08:59;;;;;;;28.65;17.50;;;;;;;5.09;99.45;101364.00;5033154;28;20053;-57
2023/12/07 03:11:26;;;;;;;34.50;17.30;;;;;;;5.28;98.78;101337.94;5041917;28;20087;-61
2023/12/07 03:13:59;;;;;;;31.02;17.73;;;;;;;5.15;98.53;101281.88;5014037;28;20052;-60
2023/12/07 03:16:27;;;;;;;29.58;17.63;;;;;;;5.02;98.46;101265.13;5026542;28;20076;-62
2023/12/07 03:18:54;;;;;;;31.63;17.48;;;;;;;5.04;99.08;101257.50;5021369;28;20417;-60
2023/12/07 03:21:22;;;;;;;34.63;19.63;;;;;;;4.87;99.14;101270.47;5014338;28;20046;-59
2023/12/07 03:23:49;;;;;;;33.30;19.23;;;;;;;4.82;99.79;101260.34;5021574;28;20061;-61
2023/12/07 03:26:17;;;;;;;33.13;18.80;;;;;;;4.72;100.00;101245.81;5029002;28;20057;-60
2023/12/07 03:28:44;;;;;;;34.08;21.00;;;;;;;4.69;100.00;101240.88;5024428;28;20062;-61
2023/12/07 03:31:11;;;;;;;34.95;19.45;;;;;;;4.72;100.00;101246.63;5032575;28;20056;-62
2023/12/07 03:33:41;;;;;;;29.00;18.42;;;;;;;4.80;100.00;101267.13;5044055;28;20048;-60
2023/12/07 03:36:11;;;;;;;32.63;19.00;;;;;;;4.71;100.00;101279.66;5017242;28;20049;-58
2023/12/07 03:38:38;;;;;;;30.50;18.38;;;;;;;4.65;100.00;101284.25;5011779;28;20453;-57
2023/12/07 03:41:05;;;;;;;33.80;18.83;;;;;;;4.71;100.00;101274.19;5020755;28;20053;-59
2023/12/07 03:43:33;;;;;;;31.27;17.20;;;;;;;4.77;100.00;101267.69;5012667;28;20049;-61
2023/12/07 03:46:04;;;;;;;31.25;18.75;;;;;;;4.65;100.00;101265.16;5029943;28;20056;-61
2023/12/07 03:48:32;;;;;;;32.72;17.80;;;;;;;5.01;100.00;101263.47;5032368;28;20049;-58
2023/12/07 03:51:01;;;;;;;31.85;17.33;;;;;;;4.99;100.00;101258.28;5031120;28;20532;-59
2023/12/07 03:53:31;;;;;;;30.63;17.50;;;;;;;4.88;100.00;101264.75;5031661;28;20053;-59
2023/12/07 03:55:59;;;;;;;32.92;17.58;;;;;;;4.82;100.00;101265.81;5032455;28;20045;-59
2023/12/07 03:58:26;;;;;;;29.15;16.75;;;;;;;4.87;100.00;101257.66;5032489;28;20049;-58
2023/12/07 04:00:57;;;;;;;29.25;16.85;;;;;;;4.91;100.00;101257.94;5030551;28;20044;-59
2023/12/07 04:03:29;;;;;;;31.70;17.67;;;;;;;4.80;100.00;101257.06;5019228;28;20049;-59
2023/12/07 04:05:57;;;;;;;30.38;16.17;;;;;;;4.86;100.00;101260.66;5024040;28;20049;-60
2023/12/07 04:08:26;;;;;;;29.73;16.55;;;;;;;4.94;100.00;101260.16;5020745;28;20533;-60
2023/12/07 04:10:54;;;;;;;27.55;17.15;;;;;;;4.84;100.00;101280.03;5027781;28;20072;-60
2023/12/07 04:13:21;;;;;;;27.80;16.30;;;;;;;5.01;100.00;101283.41;5033420;28;20057;-60
2023/12/07 04:15:48;;;;;;;28.50;16.25;;;;;;;4.87;100.00;101289.56;5012529;28;20156;-59
2023/12/07 04:18:15;;;;;;;29.45;17.00;;;;;;;5.04;100.00;101293.00;5026781;28;20060;-57
2023/12/07 04:20:43;;;;;;;26.40;16.20;;;;;;;5.37;100.00;101298.13;5014708;28;20053;-59
2023/12/07 04:23:10;;;;;;;25.25;15.48;;;;;;;5.21;99.17;101294.44;5014194;28;20064;-61
2023/12/07 04:25:38;;;;;;;25.95;16.25;;;;;;;5.04;99.18;101293.78;5031010;28;20053;-60
2023/12/07 04:28:05;;;;;;;27.30;16.20;;;;;;;5.04;99.57;101293.00;5030147;28;20050;-58
2023/12/07 04:30:32;;;;;;;26.90;16.42;;;;;;;5.06;99.81;101279.88;5015620;28;20045;-59
2023/12/07 04:33:03;;;;;;;27.17;15.65;;;;;;;5.07;99.78;101276.09;5018430;28;20507;-61
2023/12/07 04:35:30;;;;;;;25.67;16.10;;;;;;;4.92;100.00;101275.97;5048176;28;20056;-61
2023/12/07 04:37:58;;;;;;;30.35;15.95;;;;;;;5.11;100.00;101260.81;5028381;28;20053;-59
2023/12/07 04:40:25;;;;;;;29.98;15.82;;;;;;;5.11;99.76;101250.72;5029617;28;20054;-59
2023/12/07 04:42:53;;;;;;;28.55;15.90;;;;;;;5.12;99.83;101260.56;5029049;28;20532;-60
2023/12/07 04:45:25;;;;;;;25.20;15.50;;;;;;;5.22;99.36;101257.03;5012214;28;20068;-59
2023/12/07 04:48:03;;;;;;;26.80;15.05;;;;;;;4.96;98.83;101252.53;5014010;28;20061;-60
2023/12/07 04:50:38;;;;;;;;;;;;;;;4.94;100.00;101243.78;5029882;28;20046;-61
2023/12/07 04:53:18;;;;;;;32.40;15.88;;;;;;;5.14;99.84;101225.63;5012843;28;19925;-59
2023/12/07 04:55:50;;;;;;;28.60;17.10;;;;;;;5.07;99.01;101226.94;5015316;28;20061;-60
2023/12/07 04:58:22;;;;;;;26.83;16.10;;;;;;;4.99;98.81;101224.69;5013378;28;20060;-61
2023/12/07 05:00:52;;;;;;;23.40;15.50;;;;;;;4.87;100.00;101218.63;5032923;28;20049;-60
2023/12/07 05:03:20;;;;;;;24.92;15.43;;;;;;;5.11;99.88;101207.03;5049421;28;20163;-57
2023/12/07 05:05:49;;;;;;;28.83;16.02;;;;;;;4.96;99.60;101212.41;5039231;28;20068;-60
2023/12/07 05:08:17;;;;;;;27.05;16.58;;;;;;;5.03;98.94;101212.16;5029540;28;20068;-60
2023/12/07 05:10:45;;;;;;;29.20;16.15;;;;;;;4.88;99.57;101203.91;5034793;28;20541;-60
2023/12/07 05:13:12;;;;;;;30.13;16.45;;;;;;;5.07;99.06;101195.00;5049858;28;20048;-59
2023/12/07 05:15:39;;;;;;;29.63;16.52;;;;;;;4.89;99.06;101194.63;5046056;28;20120;-57
2023/12/07 05:18:07;;;;;;;27.88;15.98;;;;;;;4.88;100.00;101191.06;5008785;28;20065;-61
2023/12/07 05:20:36;;;;;;;23.98;15.52;;;;;;;4.93;100.00;101190.28;5043544;28;20049;-57
2023/12/07 05:23:03;;;;;;;27.40;16.35;;;;;;;4.82;100.00;101177.66;4997338;28;20577;-60
2023/12/07 05:25:43;;;;;;;26.45;16.08;;;;;;;4.73;100.00;101187.41;5036403;28;20049;-59
2023/12/07 05:28:27;;;;;;;25.05;15.73;;;;;;;4.80;100.00;101177.09;5020173;28;20092;-59
2023/12/07 05:31:00;;;;;;;28.00;14.93;;;;;;;5.08;100.00;101185.72;5049352;28;20057;-59
2023/12/07 05:33:43;;;;;;;23.88;15.35;;;;;;;5.08;100.00;101206.72;5038668;28;20049;-62
2023/12/07 05:36:30;;;;;;;29.08;16.05;;;;;;;5.09;100.00;101209.19;5031381;28;20064;-62
2023/12/07 05:38:58;;;;;;;26.00;15.25;;;;;;;5.26;99.63;101206.28;4997261;28;20057;-60
2023/12/07 05:41:33;;;;;;;23.55;15.05;;;;;;;5.37;98.74;101211.50;5025503;28;20057;-59
2023/12/07 05:44:01;;;;;;;24.27;14.88;;;;;;;5.38;98.26;101215.06;5020522;28;20065;-59
2023/12/07 05:46:28;;;;;;;22.48;15.07;;;;;;;5.43;97.89;101206.88;5030417;28;20552;-61
2023/12/07 05:48:55;;;;;;;22.90;14.98;;;;;;;5.41;97.64;101206.34;5030752;28;20060;-59
2023/12/07 05:51:24;;;;;;;24.13;14.38;;;;;;;5.19;98.27;101197.50;5030537;28;20037;-59
2023/12/07 05:53:52;;;;;;;25.50;15.55;;;;;;;5.35;98.55;101202.75;5012715;28;20418;-59
2023/12/07 05:56:22;;;;;;;23.85;14.70;;;;;;;5.26;98.32;101200.81;5030163;28;20045;-58
2023/12/07 05:58:50;;;;;;;26.45;14.70;;;;;;;5.50;97.44;101196.53;5028953;28;20145;-57
2023/12/07 06:01:18;;;;;;;21.35;14.55;;;;;;;5.44;96.91;101184.75;5038631;28;20041;-60
2023/12/07 06:03:49;;;;;;;22.38;15.15;;;;;;;5.58;96.91;101190.53;5037530;28;20054;-60
2023/12/07 06:06:16;;;;;;;23.50;14.60;;;;;;;5.42;96.54;101192.41;5025214;28;20053;-61
2023/12/07 06:08:44;;;;;;;22.67;14.60;;;;;;;5.27;97.23;101199.72;5010686;28;20243;-60
2023/12/07 06:11:11;;;;;;;22.42;14.13;;;;;;;5.35;96.26;101196.50;5032530;28;20057;-61
2023/12/07 06:13:39;;;;;;;24.70;14.88;;;;;;;5.24;96.73;101194.78;5049205;28;20484;-59
2023/12/07 06:16:21;;;;;;;22.45;14.75;;;;;;;5.32;97.36;101195.09;5018126;28;20054;-61
2023/12/07 06:18:49;;;;;;;24.95;14.40;;;;;;;5.50;97.04;101200.09;5035951;28;20057;-61
2023/12/07 06:21:20;;;;;;;22.80;14.77;;;;;;;5.55;95.56;101191.91;5008268;28;20050;-60
2023/12/07 06:23:47;;;;;;;21.90;14.27;;;;;;;5.44;95.38;101184.75;5026024;28;20048;-60
2023/12/07 06:26:16;;;;;;;26.38;15.25;;;;;;;5.57;95.35;101167.06;5019050;28;20127;-61
2023/12/07 06:28:53;;;;;;;21.58;13.82;;;;;;;5.54;94.47;101160.19;5013114;28;20676;-59
2023/12/07 06:31:21;;;;;;;21.40;12.93;;;;;;;5.39;95.01;101156.59;5052854;28;20045;-59
2023/12/07 06:33:49;;;;;;;22.02;14.07;;;;;;;5.39;95.21;101151.16;5040386;28;20056;-59
2023/12/07 06:36:21;;;;;;;21.90;13.23;;;;;;;5.44;95.62;101151.19;5066408;28;20053;-60
2023/12/07 06:38:48;;;;;;;21.27;13.68;;;;;;;5.42;95.55;101148.69;5031769;28;20049;-60
2023/12/07 06:41:16;;;;;;;21.67;12.70;;;;;;;5.68;94.79;101144.94;5031705;28;20042;-60
2023/12/07 06:43:44;;;;;;;21.90;14.25;;;;;;;5.29;95.30;101137.47;5015086;28;20693;-61
2023/12/07 06:46:21;;;;;;;22.25;13.50;;;;;;;5.54;95.33;101132.06;5032584;28;20076;-62
2023/12/07 06:48:49;;;;;;;25.88;12.98;;;;;;;5.54;95.10;101135.59;5015742;28;20061;-60
2023/12/07 06:51:16;;;;;;;20.55;13.00;;;;;;;5.37;95.46;101132.28;5031288;28;20053;-60
2023/12/07 06:53:43;;;;;;;17.90;12.68;;;;;;;5.28;95.44;101131.16;5033264;28;20054;-61
2023/12/07 06:56:11;;;;;;;22.10;12.90;;;;;;;5.46;95.92;101135.31;5032984;28;20555;-62
2023/12/07 06:58:38;;;;;;;22.85;13.05;;;;;;;5.51;95.89;101130.69;5031762;28;20060;-61
2023/12/07 07:01:06;;;;;;;22.83;13.45;;;;;;;5.40;96.00;101134.50;5038021;28;20515;-61
2023/12/07 07:03:35;;;;;;;21.75;13.55;;;;;;;5.53;95.42;101135.88;5051486;28;20049;-60
2023/12/07 07:06:02;;;;;;;18.92;12.95;;;;;;;5.63;95.32;101130.47;5038818;28;20037;-59
2023/12/07 07:08:29;;;;;;;21.52;12.63;;;;;;;5.51;94.92;101113.47;5032160;28;20088;-59
2023/12/07 07:11:08;;;;;;;21.15;13.15;;;;;;;5.59;95.19;101115.69;5038519;28;20049;-59
2023/12/07 07:13:43;;;;;;;19.45;12.32;;;;;;;5.58;95.35;101122.22;5034048;28;20046;-59
2023/12/07 07:16:12;;;;;;;22.30;12.85;;;;;;;5.79;94.39;101123.91;5032982;28;20052;-61
2023/12/07 07:18:40;;;;;;;19.73;12.57;;;;;;;5.77;93.77;101130.75;5014616;28;20049;-60
2023/12/07 07:21:07;;;;;;;22.02;12.40;;;;;;;5.78;93.43;101135.94;5031204;28;20075;-60
2023/12/07 07:23:35;;;;;;;19.08;11.90;;;;;;;5.97;93.35;101138.97;5031288;28;20045;-61
2023/12/07 07:26:03;;;;;;;20.27;12.05;;;;;;;5.96;92.21;101134.63;5028973;28;20412;-60
2023/12/07 07:28:30;;;;;;;20.15;11.70;;;;;;;5.99;92.47;101151.31;5032105;28;20064;-60
2023/12/07 07:30:58;;;;;;;19.83;12.25;;;;;;;5.95;92.15;101154.84;5050684;28;20060;-59
2023/12/07 07:33:27;;;;;;;18.92;12.00;;;;;;;6.26;91.55;101153.78;5014102;28;20053;-66
2023/12/07 07:35:59;;;;;;;17.80;12.15;;;;;;;6.03;90.17;101160.63;5030990;28;20046;-60
2023/12/07 07:38:28;;;;;;;18.70;12.02;;;;;;;6.21;90.33;101146.38;5031894;28;20072;-60
2023/12/07 07:40:55;;;;;;;18.67;12.20;;;;;;;6.26;90.03;101137.38;5023770;28;20045;-60
2023/12/07 07:43:22;;;;;;;16.30;11.05;;;;;;;6.15;89.56;101146.66;5029306;28;20054;-59
2023/12/07 07:45:49;;;;;;;19.65;11.43;;;;;;;6.11;90.24;101138.19;5026409;28;20056;-60
2023/12/07 07:48:39;;;;;;;22.88;12.13;;;;;;;6.12;90.58;101128.88;5030823;28;20552;-58
2023/12/07 07:51:06;;;;;;;19.58;11.65;;;;;;;5.89;90.42;101115.75;5027936;28;20508;-59
2023/12/07 07:53:34;;;;;;;22.83;11.60;;;;;;;5.67;91.17;101117.88;5024333;28;20053;-56
2023/12/07 07:56:01;;;;;;;19.88;11.63;;;;;;;5.59;92.69;101110.22;5027409;28;20074;-58
2023/12/07 07:58:28;;;;;;;19.80;11.60;;;;;;;5.54;92.33;101111.03;5010377;28;20547;-56
2023/12/07 08:00:56;;;;;;;18.73;12.07;;;;;;;5.42;93.31;101123.31;5021574;28;20068;-59
2023/12/07 08:03:23;;;;;;;21.55;12.00;;;;;;;5.54;93.75;101119.22;5024059;28;20046;-63
2023/12/07 08:05:51;;;;;;;21.70;10.70;;;;;;;5.75;94.25;101117.34;5027039;28;20056;-62
2023/12/07 08:08:26;;;;;;;21.52;11.52;;;;;;;5.66;92.60;101099.84;5016559;28;20080;-63
2023/12/07 08:10:54;;;;;;;21.25;11.43;;;;;;;5.81;93.38;101097.13;5026870;28;20057;-62
2023/12/07 08:13:23;;;;;;;20.13;11.20;;;;;;;5.81;92.71;101088.09;5026723;28;20048;-61
2023/12/07 08:15:52;;;;;;;19.20;11.00;;;;;;;6.04;92.61;101082.94;5013575;28;20284;-61
2023/12/07 08:18:28;;;;;;;17.40;10.45;;;;;;;6.03;91.58;101086.78;5021238;28;20048;-60
2023/12/07 08:20:56;;;;;;;19.55;12.00;;;;;;;5.99;91.83;101088.41;5024904;28;20519;-60
2023/12/07 08:23:23;;;;;;;23.35;11.35;;;;;;;6.15;90.84;101075.56;5004843;28;20461;-60
2023/12/07 08:25:50;;;;;;;20.58;11.27;;;;;;;6.04;89.95;101069.28;5026130;28;20061;-61
2023/12/07 08:28:18;;;;;;;21.38;11.50;;;;;;;5.79;91.69;101068.44;5023591;28;20057;-58
2023/12/07 08:30:45;;;;;;;17.42;10.85;;;;;;;5.99;91.69;101057.50;5029336;28;20046;-61
2023/12/07 08:33:12;;;;;;;17.08;10.60;;;;;;;6.27;91.87;101063.22;5035748;28;20500;-62
2023/12/07 08:35:41;;;;;;;20.25;10.75;;;;;;;5.96;89.47;101052.59;5024684;28;20048;-66
2023/12/07 08:38:09;;;;;;;18.38;10.63;;;;;;;6.12;90.40;101044.09;5027524;28;20064;-62
2023/12/07 08:40:36;;;;;;;16.00;10.02;;;;;;;6.32;90.19;101057.75;5027911;28;20057;-60
2023/12/07 08:43:04;;;;;;;16.70;10.98;;;;;;;6.36;89.58;101047.06;5016927;28;20409;-61
2023/12/07 08:45:32;;;;;;;15.93;10.10;;;;;;;6.14;89.02;101047.38;5004221;28;20049;-61
2023/12/07 08:47:59;;;;;;;14.05;9.52;;;;;;;6.18;89.07;101064.06;5018887;28;20064;-61
2023/12/07 08:50:26;;;;;;;16.52;10.50;;;;;;;6.41;88.71;101056.09;5021569;28;20056;-62
2023/12/07 08:52:53;;;;;;;15.35;8.88;;;;;;;6.37;88.80;101059.63;5006875;28;20634;-58
2023/12/07 08:55:30;;;;;;;18.70;9.38;;;;;;;6.17;88.16;101056.97;5017545;28;20046;-61
2023/12/07 08:57:59;;;;;;;15.65;9.43;;;;;;;6.39;87.54;101047.34;5025531;28;20045;-60
2023/12/07 09:00:26;;;;;;;12.43;8.88;;;;;;;6.74;87.50;101032.69;5040701;28;20572;-60
2023/12/07 09:02:54;;;;;;;17.27;10.32;;;;;;;6.80;85.47;101026.09;5012147;28;20065;-60
2023/12/07 09:05:21;;;;;;;16.42;9.30;;;;;;;6.68;84.24;101023.69;5025217;28;20044;-61
2023/12/07 09:07:48;;;;;;;20.42;9.18;;;;;;;6.45;84.99;101031.72;5021146;28;20041;-60
2023/12/07 09:10:16;;;;;;;18.42;9.55;;;;;;;6.64;85.41;101033.53;5023740;28;20050;-60
2023/12/07 09:13:15;;;;;;;14.43;8.88;;;;;;;6.67;84.58;101033.00;5117286;27;20387;-60
2023/12/07 09:15:43;;;;;;;14.38;9.32;;;;;;;6.68;83.40;101026.44;5101487;28;20056;-62
2023/12/07 09:18:11;;;;;;;15.10;9.30;;;;;;;6.86;82.61;101011.28;5108257;28;20458;-62
2023/12/07 09:20:45;;;;;;;13.88;8.38;;;;;;;6.61;82.97;100997.72;5122707;28;20486;-61
2023/12/07 09:23:14;;;;;;;14.50;8.32;;;;;;;6.76;82.39;100986.72;5097526;28;20059;-60
2023/12/07 09:25:46;;;;;;;14.13;8.65;;;;;;;6.67;82.87;100991.97;5112609;28;20046;-62
2023/12/07 09:28:27;;;;;;;12.82;8.15;;;;;;;6.63;82.53;100990.03;5079045;28;20054;-63
2023/12/07 09:30:55;;;;;;;16.02;8.95;;;;;;;6.54;83.77;100987.06;5128073;27;20055;-60
2023/12/07 09:33:23;;;;;;;14.35;8.07;;;;;;;6.53;83.62;100977.25;5115919;28;20483;-61
2023/12/07 09:35:51;;;;;;;13.82;8.27;;;;;;;6.67;83.63;100982.91;5106403;28;20059;-61
2023/12/07 09:38:18;;;;;;;15.93;9.13;;;;;;;6.80;82.58;100985.84;5120458;28;20052;-61
2023/12/07 09:40:46;;;;;;;16.38;8.88;;;;;;;7.01;81.79;100992.03;5117160;28;20043;-62
2023/12/07 09:43:13;;;;;;;13.52;8.10;;;;;;;6.84;81.54;100977.91;5099305;28;20039;-60
2023/12/07 09:45:40;;;;;;;14.40;8.63;;;;;;;6.88;81.49;100972.66;5109677;28;20043;-62
2023/12/07 09:48:08;;;;;;;13.50;7.90;;;;;;;6.99;81.04;100955.09;5114901;28;20055;-61
2023/12/07 09:50:35;;;;;;;13.68;8.57;;;;;;;6.93;81.29;100957.03;5093262;28;20063;-58
2023/12/07 09:53:03;;;;;;;12.73;7.70;;;;;;;7.09;80.11;100961.31;5086021;28;20545;-62
2023/12/07 09:55:35;;;;;;;15.30;8.27;;;;;;;7.03;79.35;100948.75;5099998;28;20044;-61
2023/12/07 09:58:05;;;;;;;11.45;7.18;;;;;;;7.20;79.29;100943.69;5106393;28;20055;-61
2023/12/07 10:00:35;;;;;;;14.68;7.90;;;;;;;7.26;79.07;100936.25;5065675;28;20431;-62
2023/12/07 10:03:04;;;;;;;11.95;7.78;;;;;;;7.20;78.68;100930.00;5076834;28;20454;-62
2023/12/07 10:05:31;;;;;;;14.98;8.27;;;;;;;7.12;78.85;100911.44;5069779;28;20048;-61
2023/12/07 10:07:59;;;;;;;13.65;7.68;;;;;;;7.16;78.98;100917.16;5080642;28;20052;-62
2023/12/07 10:10:26;;;;;;;13.70;7.95;;;;;;;7.28;78.12;100903.91;5102938;28;20056;-61
2023/12/07 10:12:55;;;;;;;16.67;8.10;;;;;;;7.09;78.56;100908.44;5087263;28;20047;-61
2023/12/07 10:15:23;;;;;;;13.07;7.35;;;;;;;7.19;78.42;100900.97;5117104;27;20056;-62
2023/12/07 10:17:59;;;;;;;12.70;8.38;;;;;;;7.18;78.37;100890.31;5107595;28;20048;-62
2023/12/07 10:20:28;;;;;;;12.88;7.90;;;;;;;7.18;77.87;100902.09;5093028;28;20535;-62
2023/12/07 10:23:04;;;;;;;16.58;7.60;;;;;;;7.15;78.02;100905.38;5100463;28;20044;-60
2023/12/07 10:25:34;;;;;;;13.48;7.68;;;;;;;7.16;78.47;100906.22;5089050;28;20047;-61
2023/12/07 10:28:06;;;;;;;16.20;7.63;;;;;;;7.07;78.14;100897.78;5092538;28;20514;-62
2023/12/07 10:30:34;;;;;;;13.18;7.05;;;;;;;6.96;78.40;100882.53;5060384;28;20048;-59
2023/12/07 10:33:06;;;;;;;13.35;7.60;;;;;;;7.14;78.40;100868.16;5084172;28;20059;-62
2023/12/07 10:35:41;;;;;;;13.95;8.15;;;;;;;6.66;79.30;100871.78;5085538;28;20059;-61
2023/12/07 10:38:09;;;;;;;12.30;8.05;;;;;;;7.04;79.57;100878.38;5102208;28;20082;-62
2023/12/07 10:40:37;;;;;;;14.10;7.75;;;;;;;6.95;78.34;100869.94;5082787;28;20058;-62
2023/12/07 10:43:06;;;;;;;15.00;7.60;;;;;;;7.34;78.84;100865.22;5074035;28;20040;-61
2023/12/07 10:45:36;;;;;;;11.60;6.85;;;;;;;7.15;78.60;100861.56;5094549;28;20505;-61
2023/12/07 10:48:08;;;;;;;11.55;7.30;;;;;;;7.03;78.85;100852.91;5096661;28;20052;-60
2023/12/07 10:50:46;;;;;;;15.45;7.85;;;;;;;7.12;78.13;100853.09;5096604;28;20051;-61
2023/12/07 10:53:27;;;;;;;12.65;7.63;;;;;;;7.09;78.70;100859.16;5079695;28;20044;-61
2023/12/07 10:56:00;;;;;;;15.63;7.53;;;;;;;7.17;77.83;100861.25;5070473;28;20150;-61
2023/12/07 10:58:28;;;;;;;15.65;7.80;;;;;;;7.22;77.41;100855.75;5067257;28;20052;-61
2023/12/07 11:00:57;;;;;;;15.35;7.78;;;;;;;7.31;77.06;100848.53;5070166;28;20048;-59
2023/12/07 11:03:25;;;;;;;15.35;7.63;;;;;;;7.24;76.94;100829.69;5078606;28;20044;-66
2023/12/07 11:05:53;;;;;;;15.27;6.90;;;;;;;7.33;77.48;100814.28;5074950;28;20051;-61
2023/12/07 11:08:40;;;;;;;13.73;7.43;;;;;;;7.35;76.55;100805.75;5090434;28;20050;-61
2023/12/07 11:11:25;;;;;;;13.43;7.55;;;;;;;7.52;76.03;100806.13;5071238;28;20059;-64
2023/12/07 11:14:04;;;;;;;14.57;7.70;;;;;;;7.21;76.98;100804.81;5083027;28;20048;-60
2023/12/07 11:16:33;;;;;;;18.10;8.75;;;;;;;7.01;77.81;100789.38;5079490;28;20446;-61
2023/12/07 11:19:01;;;;;;;13.68;7.80;;;;;;;7.24;77.22;100788.59;5079469;28;20047;-60
2023/12/07 11:21:29;;;;;;;16.85;7.35;;;;;;;7.44;76.67;100771.13;5087073;28;20044;-61
2023/12/07 11:23:59;;;;;;;17.05;7.25;;;;;;;7.18;77.14;100756.91;5079868;28;20103;-61
2023/12/07 11:26:26;;;;;;;12.98;7.38;;;;;;;7.19;77.64;100777.72;5097793;28;20048;-60
2023/12/07 11:28:55;;;;;;;13.70;7.22;;;;;;;7.47;77.02;100776.03;5081372;28;20055;-62